Time;durP1;ratioP1;P1;durP2;ratioP2;P2;SDS_P1;SDS_P2;PMS_P1;PMS_P2;Temp;Humidity;BMP_temperature;BMP_pressure;BME280_temperature;BME280_humidity;BME280_pressure;Samples;Min_cycle;Max_cycle;Signal;HPM_P1;HPM_P2
2021/06/26 00:00:10;;;;;;;59.22;38.95;;;;;;;15.65;100.00;101838.34;3579430;40;20053;-64
2021/06/26 00:02:37;;;;;;;62.40;40.10;;;;;;;15.54;100.00;101839.34;3579864;40;20532;-64
2021/06/26 00:05:05;;;;;;;68.25;41.17;;;;;;;15.60;100.00;101832.47;3577746;40;20068;-64
2021/06/26 00:07:33;;;;;;;58.47;37.38;;;;;;;15.72;100.00;101836.75;3579393;40;20052;-65
2021/06/26 00:09:59;;;;;;;65.15;41.05;;;;;;;15.75;100.00;101835.59;3579845;40;20058;-63
2021/06/26 00:12:26;;;;;;;61.38;40.03;;;;;;;15.74;100.00;101828.47;3579540;40;20097;-63
2021/06/26 00:14:53;;;;;;;63.65;39.53;;;;;;;15.73;100.00;101835.75;3580367;40;20043;-63
2021/06/26 00:17:20;;;;;;;61.15;39.13;;;;;;;15.69;100.00;101837.03;3579112;40;20037;-63
2021/06/26 00:19:46;;;;;;;68.30;39.42;;;;;;;15.77;100.00;101836.31;3579466;40;20071;-63
2021/06/26 00:22:13;;;;;;;62.13;39.15;;;;;;;15.66;100.00;101831.88;3579349;40;20054;-64
2021/06/26 00:24:40;;;;;;;58.70;39.83;;;;;;;15.57;100.00;101833.63;3579909;40;20049;-64
2021/06/26 00:27:08;;;;;;;62.20;39.45;;;;;;;15.80;100.00;101837.88;3579186;40;20088;-63
2021/06/26 00:29:35;;;;;;;54.47;37.75;;;;;;;15.81;100.00;101835.06;3579149;40;20073;-64
2021/06/26 00:32:02;;;;;;;54.97;35.72;;;;;;;15.64;100.00;101833.91;3578608;40;20056;-65
2021/06/26 00:34:28;;;;;;;59.28;38.85;;;;;;;15.62;100.00;101830.50;3578858;40;20068;-64
2021/06/26 00:36:55;;;;;;;58.90;38.75;;;;;;;15.56;100.00;101828.34;3578584;40;20426;-64
2021/06/26 00:39:21;;;;;;;57.65;37.40;;;;;;;15.55;100.00;101827.50;3578718;40;20073;-63
2021/06/26 00:41:49;;;;;;;57.08;35.78;;;;;;;15.53;100.00;101828.63;3579753;40;20415;-63
2021/06/26 00:44:15;;;;;;;63.88;39.13;;;;;;;15.47;100.00;101837.34;3579212;40;20294;-63
2021/06/26 00:46:42;;;;;;;53.25;36.72;;;;;;;15.37;100.00;101831.94;3578646;40;20464;-63
2021/06/26 00:49:09;;;;;;;63.15;40.60;;;;;;;15.28;100.00;101828.22;3578932;40;20056;-64
2021/06/26 00:51:35;;;;;;;60.20;37.67;;;;;;;15.35;100.00;101826.66;3579694;40;20049;-64
2021/06/26 00:54:02;;;;;;;55.40;36.58;;;;;;;15.45;100.00;101826.66;3578561;40;20039;-64
2021/06/26 00:56:29;;;;;;;59.60;38.58;;;;;;;15.47;100.00;101831.94;3580468;40;20065;-63
2021/06/26 00:58:57;;;;;;;58.28;36.55;;;;;;;15.36;100.00;101825.66;3579510;40;20077;-64
2021/06/26 01:01:24;;;;;;;53.47;35.92;;;;;;;15.46;100.00;101814.81;3577932;40;20089;-63
2021/06/26 01:03:50;;;;;;;61.20;38.35;;;;;;;15.36;100.00;101824.81;3580859;40;20051;-63
2021/06/26 01:06:17;;;;;;;62.95;39.85;;;;;;;15.22;100.00;101823.38;3578990;40;20057;-63
2021/06/26 01:08:44;;;;;;;62.53;38.38;;;;;;;15.27;100.00;101820.22;3579340;40;20043;-62
2021/06/26 01:11:10;;;;;;;65.35;39.53;;;;;;;15.28;100.00;101820.06;3578597;40;20048;-63
2021/06/26 01:13:36;;;;;;;55.63;36.75;;;;;;;15.19;100.00;101823.66;3580662;40;20057;-64
2021/06/26 01:16:05;;;;;;;57.80;39.53;;;;;;;15.35;100.00;101829.34;3577020;40;20055;-64
2021/06/26 01:18:31;;;;;;;58.37;37.40;;;;;;;15.50;100.00;101837.06;3578697;40;20368;-63
2021/06/26 01:20:58;;;;;;;61.30;39.92;;;;;;;15.50;100.00;101837.06;3579513;40;20052;-63
2021/06/26 01:23:26;;;;;;;64.72;40.50;;;;;;;15.49;100.00;101835.34;3579270;40;20542;-64
2021/06/26 01:25:53;;;;;;;64.70;40.90;;;;;;;15.47;100.00;101837.34;3578606;40;20029;-63
2021/06/26 01:28:19;;;;;;;61.15;39.13;;;;;;;15.47;100.00;101837.34;3579322;40;20056;-63
2021/06/26 01:30:46;;;;;;;64.68;42.75;;;;;;;15.40;100.00;101843.38;3578823;40;20353;-64
2021/06/26 01:33:14;;;;;;;68.05;41.08;;;;;;;15.38;100.00;101836.34;3578718;40;20100;-63
2021/06/26 01:35:40;;;;;;;70.60;42.05;;;;;;;15.38;100.00;101845.34;3578860;40;20402;-62
2021/06/26 01:38:07;;;;;;;63.53;38.50;;;;;;;15.32;100.00;101851.34;3579335;40;20056;-64
2021/06/26 01:40:35;;;;;;;72.43;42.53;;;;;;;15.26;100.00;101841.06;3578615;40;20063;-63
2021/06/26 01:43:01;;;;;;;53.17;36.17;;;;;;;15.36;100.00;101847.34;3578939;40;20338;-63
2021/06/26 01:45:28;;;;;;;71.05;41.53;;;;;;;15.29;100.00;101840.78;3578441;40;20395;-63
2021/06/26 01:47:56;;;;;;;60.67;39.22;;;;;;;15.36;100.00;101847.34;3579507;40;20123;-63
2021/06/26 01:50:25;;;;;;;62.13;38.75;;;;;;;15.36;100.00;101846.50;3578278;40;20083;-63
2021/06/26 01:52:52;;;;;;;56.80;37.90;;;;;;;15.42;100.00;101854.91;3579107;40;20424;-62
2021/06/26 01:55:20;;;;;;;63.90;38.10;;;;;;;15.34;100.00;101857.50;3578269;40;20315;-63
2021/06/26 01:57:49;;;;;;;56.15;37.15;;;;;;;15.33;100.00;101858.50;3579679;40;20048;-63
2021/06/26 02:00:17;;;;;;;58.00;37.65;;;;;;;15.20;100.00;101849.78;3576931;40;20314;-63
2021/06/26 02:02:44;;;;;;;60.75;36.83;;;;;;;15.22;100.00;101856.78;3579284;40;20388;-63
2021/06/26 02:05:12;;;;;;;59.50;38.00;;;;;;;15.20;100.00;101857.94;3578880;40;20045;-63
2021/06/26 02:07:39;;;;;;;62.38;39.10;;;;;;;15.23;100.00;101854.94;3580198;40;20077;-64
2021/06/26 02:10:07;;;;;;;63.08;39.40;;;;;;;15.14;100.00;101858.50;3577192;40;20041;-63
2021/06/26 02:12:34;;;;;;;64.57;39.35;;;;;;;15.19;100.00;101865.22;3577561;40;20052;-63
2021/06/26 02:15:01;;;;;;;65.55;40.17;;;;;;;15.19;100.00;101861.63;3579526;40;20407;-63
2021/06/26 02:17:28;;;;;;;66.30;38.60;;;;;;;15.07;100.00;101863.63;3578855;40;20076;-63
2021/06/26 02:19:54;;;;;;;61.58;38.80;;;;;;;15.10;100.00;101859.78;3578696;40;20047;-63
2021/06/26 02:22:21;;;;;;;57.15;38.63;;;;;;;15.15;100.00;101865.63;3578381;40;20055;-62
2021/06/26 02:24:47;;;;;;;63.78;40.17;;;;;;;15.06;100.00;101868.19;3578865;40;20060;-63
2021/06/26 02:27:14;;;;;;;67.72;40.45;;;;;;;14.97;100.00;101862.75;3579384;40;20049;-63
2021/06/26 02:29:40;;;;;;;60.22;37.40;;;;;;;15.06;100.00;101857.34;3579135;40;20054;-62
2021/06/26 02:32:08;;;;;;;60.92;38.22;;;;;;;15.05;100.00;101871.03;3577540;40;20324;-63
2021/06/26 02:34:35;;;;;;;60.40;38.35;;;;;;;14.94;100.00;101872.00;3579134;40;20362;-63
2021/06/26 02:37:02;;;;;;;60.13;36.63;;;;;;;15.01;100.00;101875.88;3579293;40;20041;-63
2021/06/26 02:39:29;;;;;;;64.40;38.35;;;;;;;14.94;100.00;101865.75;3578653;40;20049;-63
2021/06/26 02:41:55;;;;;;;58.03;37.85;;;;;;;14.95;100.00;101870.19;3578239;40;20061;-63
2021/06/26 02:44:22;;;;;;;61.70;38.40;;;;;;;14.95;100.00;101862.88;3578589;40;20060;-62
2021/06/26 02:46:50;;;;;;;54.17;36.55;;;;;;;14.91;100.00;101861.44;3579125;40;20467;-62
2021/06/26 02:49:18;;;;;;;58.58;35.53;;;;;;;14.94;100.00;101869.28;3577812;40;20076;-63
2021/06/26 02:51:44;;;;;;;58.25;35.22;;;;;;;15.02;100.00;101877.59;3578991;40;20395;-63
2021/06/26 02:54:11;;;;;;;53.83;34.90;;;;;;;15.12;100.00;101865.91;3577225;40;21206;-63
2021/06/26 02:56:37;;;;;;;50.35;36.25;;;;;;;15.09;100.00;101871.59;3580040;40;20049;-63
2021/06/26 02:59:04;;;;;;;60.60;37.22;;;;;;;15.05;100.00;101863.75;3577804;40;20047;-63
2021/06/26 03:01:30;;;;;;;60.53;36.75;;;;;;;15.05;100.00;101869.19;3578710;40;20055;-63
2021/06/26 03:06:26;;;;;;;59.03;36.83;;;;;;;15.07;100.00;101872.63;3602545;23;20122;-63
2021/06/26 03:08:52;;;;;;;58.40;36.50;;;;;;;15.01;100.00;101884.00;3569894;40;20069;-63
2021/06/26 03:11:19;;;;;;;67.38;37.78;;;;;;;15.02;100.00;101880.31;3569359;40;20397;-63
2021/06/26 03:13:45;;;;;;;54.13;35.83;;;;;;;15.12;100.00;101887.59;3570120;40;20063;-63
2021/06/26 03:16:12;;;;;;;64.20;38.22;;;;;;;15.15;100.00;101876.47;3569856;40;20047;-63
2021/06/26 03:18:43;;;;;;;57.03;37.10;;;;;;;15.16;100.00;101879.03;3570762;40;20068;-62
2021/06/26 03:21:09;;;;;;;60.25;37.22;;;;;;;15.04;100.00;101875.59;3569440;40;20076;-63
2021/06/26 03:23:37;;;;;;;52.72;35.60;;;;;;;15.13;100.00;101879.31;3570659;40;20052;-63
2021/06/26 03:26:05;;;;;;;59.65;38.50;;;;;;;15.03;100.00;101882.03;3570579;40;20052;-63
2021/06/26 03:28:31;;;;;;;61.53;37.67;;;;;;;15.14;100.00;101874.78;3571091;40;20110;-62
2021/06/26 03:30:58;;;;;;;62.60;39.60;;;;;;;15.04;100.00;101888.31;3569958;40;20041;-63
2021/06/26 03:33:24;;;;;;;63.17;39.95;;;;;;;15.02;100.00;101888.44;3570728;40;20083;-63
2021/06/26 03:35:51;;;;;;;62.35;39.15;;;;;;;15.11;100.00;101886.75;3571087;40;20058;-64
2021/06/26 03:38:17;;;;;;;59.55;36.85;;;;;;;15.25;100.00;101885.47;3570597;40;20060;-63
2021/06/26 03:40:45;;;;;;;61.55;37.70;;;;;;;15.34;100.00;101881.91;3570668;40;20038;-63
2021/06/26 03:43:12;;;;;;;63.22;38.95;;;;;;;15.38;100.00;101883.31;3570101;40;20534;-63
2021/06/26 03:45:38;;;;;;;55.35;35.58;;;;;;;15.45;100.00;101874.63;3570160;40;20064;-64
2021/06/26 03:48:05;;;;;;;63.45;38.55;;;;;;;15.34;100.00;101876.50;3570495;40;20061;-63
2021/06/26 03:50:33;;;;;;;61.60;38.13;;;;;;;15.37;100.00;101875.31;3571110;40;20033;-63
2021/06/26 03:52:59;;;;;;;55.60;37.03;;;;;;;15.37;100.00;101881.63;3568839;40;20048;-63
2021/06/26 03:55:26;;;;;;;50.20;33.63;;;;;;;15.47;100.00;101878.06;3568364;40;20045;-63
2021/06/26 03:57:53;;;;;;;55.65;36.33;;;;;;;15.47;100.00;101884.31;3570848;40;20046;-63
2021/06/26 04:00:20;;;;;;;54.15;34.70;;;;;;;15.45;100.00;101882.78;3570133;40;20045;-63
2021/06/26 04:02:47;;;;;;;58.55;38.45;;;;;;;15.66;100.00;101886.16;3570450;40;20048;-64
2021/06/26 04:05:13;;;;;;;56.15;36.55;;;;;;;15.83;100.00;101875.63;3568221;40;20087;-63
2021/06/26 04:07:40;;;;;;;53.45;35.17;;;;;;;15.82;100.00;101873.91;3570124;40;20065;-63
2021/06/26 04:10:07;;;;;;;54.83;35.45;;;;;;;15.72;100.00;101879.31;3570094;40;20122;-63
2021/06/26 04:12:34;;;;;;;54.17;35.10;;;;;;;15.85;100.00;101877.19;3571022;40;20061;-63
2021/06/26 04:15:02;;;;;;;47.65;33.65;;;;;;;15.77;100.00;101883.31;3569707;40;20081;-63
2021/06/26 04:17:28;;;;;;;53.60;34.60;;;;;;;15.66;100.00;101888.03;3569026;40;20277;-63
2021/06/26 04:19:55;;;;;;;56.63;36.15;;;;;;;15.56;100.00;101879.91;3568210;40;20352;-64
2021/06/26 04:22:21;;;;;;;56.30;35.72;;;;;;;15.65;100.00;101879.06;3569270;40;20069;-64
2021/06/26 04:24:48;;;;;;;61.28;36.38;;;;;;;15.82;100.00;101879.34;3570443;40;20041;-63
2021/06/26 04:27:14;;;;;;;54.97;35.78;;;;;;;15.96;100.00;101876.16;3570601;40;20055;-63
2021/06/26 04:29:41;;;;;;;54.53;35.38;;;;;;;15.98;100.00;101874.16;3569984;40;20057;-64
2021/06/26 04:32:10;;;;;;;62.75;37.08;;;;;;;15.94;100.00;101879.03;3569227;40;20061;-63
2021/06/26 04:34:37;;;;;;;53.38;35.67;;;;;;;16.11;100.00;101868.41;3570597;40;20045;-63
2021/06/26 04:37:06;;;;;;;48.60;32.17;;;;;;;16.08;100.00;101872.25;3569393;40;20038;-63
2021/06/26 04:39:32;;;;;;;;;;;;;;;16.33;100.00;101874.47;3571503;40;20057;-63
2021/06/26 04:41:59;;;;;;;51.90;32.65;;;;;;;16.41;100.00;101871.88;3570377;40;19961;-64
2021/06/26 04:44:25;;;;;;;47.53;32.47;;;;;;;16.58;100.00;101876.50;3568933;40;20056;-64
2021/06/26 04:46:52;;;;;;;49.88;33.20;;;;;;;16.66;100.00;101869.47;3570213;40;20319;-63
2021/06/26 04:49:20;;;;;;;45.28;31.58;;;;;;;16.91;100.00;101862.47;3569235;40;20394;-63
2021/06/26 04:51:46;;;;;;;45.45;32.78;;;;;;;17.23;100.00;101863.81;3570231;40;20049;-64
2021/06/26 04:54:13;;;;;;;41.40;29.85;;;;;;;17.36;100.00;101866.13;3567193;40;20049;-64
2021/06/26 04:56:41;;;;;;;38.70;28.50;;;;;;;17.40;100.00;101864.81;3569877;40;20052;-64
2021/06/26 04:59:07;;;;;;;43.50;30.38;;;;;;;17.68;100.00;101862.81;3570157;40;20175;-64
2021/06/26 05:01:33;;;;;;;40.45;28.98;;;;;;;17.70;100.00;101866.25;3570090;40;20045;-64
2021/06/26 05:04:01;;;;;;;39.10;28.55;;;;;;;17.69;100.00;101861.81;3569008;40;20045;-64
2021/06/26 05:06:28;;;;;;;37.58;27.98;;;;;;;18.34;100.00;101864.16;3568157;40;20048;-63
2021/06/26 05:08:55;;;;;;;33.45;25.05;;;;;;;18.80;100.00;101862.94;3569750;40;20046;-63
2021/06/26 05:11:21;;;;;;;38.70;27.52;;;;;;;19.39;100.00;101862.91;3567791;40;20224;-63
2021/06/26 05:13:48;;;;;;;34.67;25.23;;;;;;;19.85;100.00;101874.19;3569341;40;20037;-63
2021/06/26 05:16:14;;;;;;;32.35;25.42;;;;;;;18.42;100.00;101876.09;3568247;40;20052;-63
2021/06/26 05:18:41;;;;;;;35.45;26.10;;;;;;;17.65;100.00;101869.47;3569837;40;20049;-63
2021/06/26 05:21:07;;;;;;;34.83;25.45;;;;;;;17.45;100.00;101876.94;3568648;40;20088;-63
2021/06/26 05:23:35;;;;;;;39.63;27.92;;;;;;;17.14;100.00;101880.06;3570525;40;20097;-63
2021/06/26 05:26:02;;;;;;;38.83;28.25;;;;;;;17.26;100.00;101874.38;3568761;40;20600;-63
2021/06/26 05:28:28;;;;;;;40.65;28.52;;;;;;;17.32;100.00;101874.59;3570273;40;20060;-63
2021/06/26 05:30:55;;;;;;;39.65;27.33;;;;;;;17.39;100.00;101866.69;3569476;40;20033;-63
2021/06/26 05:33:21;;;;;;;36.17;26.77;;;;;;;17.48;100.00;101868.47;3570567;40;20081;-64
2021/06/26 05:35:49;;;;;;;43.67;30.05;;;;;;;17.22;100.00;101872.97;3569493;40;20043;-64
2021/06/26 05:38:16;;;;;;;43.97;30.52;;;;;;;17.29;100.00;101863.19;3570527;40;20069;-63
2021/06/26 05:40:44;;;;;;;42.83;29.73;;;;;;;17.23;100.00;101872.81;3569646;40;20060;-63
2021/06/26 05:43:10;;;;;;;41.83;29.77;;;;;;;17.24;100.00;101870.94;3569320;40;20077;-63
2021/06/26 05:45:36;;;;;;;47.10;32.80;;;;;;;17.10;100.00;101875.09;3569900;40;20041;-63
2021/06/26 05:48:03;;;;;;;45.35;31.80;;;;;;;17.20;100.00;101875.03;3569500;40;20052;-64
2021/06/26 05:50:30;;;;;;;48.58;31.58;;;;;;;17.37;100.00;101867.84;3570194;40;20067;-64
2021/06/26 05:52:57;;;;;;;47.10;32.30;;;;;;;17.63;100.00;101865.19;3569752;40;20057;-64
2021/06/26 05:55:24;;;;;;;46.25;32.25;;;;;;;17.78;100.00;101857.28;3569333;40;20113;-64
2021/06/26 05:57:53;;;;;;;45.80;30.80;;;;;;;18.12;100.00;101867.41;3569820;40;20067;-64
2021/06/26 06:00:22;;;;;;;43.20;27.80;;;;;;;18.15;100.00;101869.81;3568500;40;20060;-64
2021/06/26 06:02:50;;;;;;;44.78;29.70;;;;;;;18.33;100.00;101872.47;3570106;40;20874;-64
2021/06/26 06:05:16;;;;;;;44.47;28.98;;;;;;;18.46;100.00;101867.44;3557520;40;20080;-64
2021/06/26 06:07:44;;;;;;;36.80;26.98;;;;;;;18.84;100.00;101876.06;3570133;40;22040;-64
2021/06/26 06:10:12;;;;;;;40.83;27.98;;;;;;;18.69;100.00;101877.75;3569299;40;20057;-63
2021/06/26 06:12:40;;;;;;;40.88;27.20;;;;;;;18.38;100.00;101884.59;3570726;40;20085;-63
2021/06/26 06:15:10;;;;;;;44.83;28.17;;;;;;;18.15;100.00;101881.59;3569797;40;20400;-64
2021/06/26 06:17:37;;;;;;;39.20;28.02;;;;;;;18.39;100.00;101889.03;3570873;40;20062;-64
2021/06/26 06:20:06;;;;;;;35.85;25.67;;;;;;;18.69;100.00;101884.03;3569745;40;20083;-63
2021/06/26 06:22:33;;;;;;;36.42;24.58;;;;;;;18.56;100.00;101889.97;3569766;40;20060;-64
2021/06/26 06:25:01;;;;;;;34.30;23.55;;;;;;;18.61;100.00;101897.66;3570230;40;20085;-64
2021/06/26 06:27:27;;;;;;;29.63;20.90;;;;;;;18.72;100.00;101897.34;3569415;40;20048;-64
2021/06/26 06:29:54;;;;;;;32.75;22.73;;;;;;;18.49;100.00;101894.38;3569137;40;20037;-63
2021/06/26 06:32:22;;;;;;;36.70;22.55;;;;;;;18.47;100.00;101892.81;3569265;40;20045;-64
2021/06/26 06:34:49;;;;;;;29.27;21.57;;;;;;;18.73;100.00;101890.03;3565189;40;20061;-63
2021/06/26 06:37:15;;;;;;;30.38;21.17;;;;;;;18.97;100.00;101897.47;3568132;40;20029;-64
2021/06/26 06:39:42;;;;;;;31.35;21.65;;;;;;;18.85;100.00;101896.88;3569791;40;20378;-64
2021/06/26 06:42:09;;;;;;;31.63;23.33;;;;;;;18.87;100.00;101896.75;3565212;40;20041;-64
2021/06/26 06:44:35;;;;;;;33.15;22.55;;;;;;;18.90;100.00;101891.84;3568206;40;20414;-64
2021/06/26 06:47:02;;;;;;;29.30;20.95;;;;;;;19.12;100.00;101894.94;3568879;40;20331;-64
2021/06/26 06:49:29;;;;;;;28.95;21.17;;;;;;;19.14;100.00;101895.66;3568621;40;20045;-64
2021/06/26 06:51:56;;;;;;;26.27;21.27;;;;;;;19.19;100.00;101898.72;3569503;40;20057;-64
2021/06/26 06:54:22;;;;;;;30.75;23.73;;;;;;;19.16;100.00;101900.94;3568965;40;20061;-63
2021/06/26 06:56:49;;;;;;;33.50;22.77;;;;;;;19.48;100.00;101899.25;3568982;40;20069;-64
2021/06/26 06:59:15;;;;;;;30.10;21.58;;;;;;;19.82;100.00;101893.66;3569521;40;20045;-63
2021/06/26 07:01:42;;;;;;;26.38;20.20;;;;;;;19.68;100.00;101902.50;3568423;40;20065;-63
2021/06/26 07:04:09;;;;;;;29.90;21.52;;;;;;;19.77;100.00;101904.19;3567940;40;20128;-63
2021/06/26 07:06:37;;;;;;;27.60;21.02;;;;;;;19.51;100.00;101899.78;3569048;40;20347;-64
2021/06/26 07:09:03;;;;;;;27.83;20.92;;;;;;;19.66;100.00;101902.69;3568636;40;20081;-64
2021/06/26 07:11:30;;;;;;;28.33;20.73;;;;;;;19.67;100.00;101903.53;3569817;40;20404;-63
2021/06/26 07:13:56;;;;;;;27.02;19.80;;;;;;;19.50;100.00;101900.78;3569472;40;20039;-63
2021/06/26 07:16:23;;;;;;;24.90;19.05;;;;;;;19.70;100.00;101911.38;3567684;40;20052;-63
2021/06/26 07:18:49;;;;;;;24.73;19.40;;;;;;;19.93;100.00;101909.72;3566093;40;20057;-63
2021/06/26 07:24:01;;;;;;;23.02;17.20;;;;;;;19.77;100.00;101904.19;3611306;23;20650;-64
2021/06/26 07:26:28;;;;;;;23.42;17.63;;;;;;;20.16;100.00;101892.59;3579160;40;20061;-63
2021/06/26 07:28:54;;;;;;;23.42;17.83;;;;;;;19.88;100.00;101901.16;3580229;40;20060;-64
2021/06/26 07:31:21;;;;;;;24.17;18.23;;;;;;;19.45;100.00;101900.47;3578253;40;20045;-63
2021/06/26 07:33:47;;;;;;;24.50;18.33;;;;;;;19.17;100.00;101902.63;3580101;40;20047;-63
2021/06/26 07:36:13;;;;;;;25.88;18.40;;;;;;;19.29;100.00;101895.84;3626412;22;20436;-63
2021/06/26 07:38:40;;;;;;;21.63;16.80;;;;;;;19.21;100.00;101893.97;3570126;40;20079;-64
2021/06/26 07:41:08;;;;;;;22.75;17.15;;;;;;;19.32;100.00;101900.97;3568816;40;20060;-64
2021/06/26 07:43:35;;;;;;;24.23;16.95;;;;;;;19.30;100.00;101896.69;3569422;40;20063;-63
2021/06/26 07:46:03;;;;;;;20.88;17.33;;;;;;;19.58;100.00;101889.88;3569173;40;20056;-64
2021/06/26 07:48:29;;;;;;;22.23;16.95;;;;;;;19.82;100.00;101890.94;3569174;40;20041;-63
2021/06/26 07:50:56;;;;;;;21.52;17.33;;;;;;;19.97;100.00;101892.97;3569975;40;20375;-64
2021/06/26 07:53:23;;;;;;;22.83;15.70;;;;;;;20.40;100.00;101888.06;3569921;40;20359;-64
2021/06/26 07:55:52;;;;;;;22.20;14.80;;;;;;;20.37;100.00;101883.81;3570463;40;20065;-63
2021/06/26 07:58:20;;;;;;;17.48;14.05;;;;;;;20.56;100.00;101893.47;3570203;40;20075;-63
2021/06/26 08:03:38;;;;;;;14.82;12.60;;;;;;;21.76;100.00;101877.69;3609229;22;20427;-64
2021/06/26 08:06:04;;;;;;;15.93;11.82;;;;;;;21.49;100.00;101879.97;3581034;40;20033;-64
2021/06/26 08:08:31;;;;;;;16.58;11.38;;;;;;;21.64;100.00;101875.41;3581047;40;20050;-64
2021/06/26 08:10:57;;;;;;;12.77;10.18;;;;;;;22.22;100.00;101872.94;3580244;40;20055;-64
2021/06/26 08:13:25;;;;;;;14.13;10.50;;;;;;;22.55;100.00;101871.72;3580416;40;20387;-63
2021/06/26 08:15:52;;;;;;;11.63;9.70;;;;;;;21.83;100.00;101867.69;3580923;40;20306;-64
2021/06/26 08:18:18;;;;;;;10.25;8.13;;;;;;;21.52;100.00;101874.13;3580928;40;20041;-64
2021/06/26 08:20:45;;;;;;;12.98;8.30;;;;;;;21.18;100.00;101876.22;3581675;40;20064;-63
2021/06/26 08:23:12;;;;;;;13.65;9.30;;;;;;;21.78;100.00;101875.63;3578709;40;20033;-64
2021/06/26 08:25:39;;;;;;;9.82;8.55;;;;;;;21.70;100.00;101880.16;3576480;40;20089;-64
2021/06/26 08:28:06;;;;;;;12.05;9.07;;;;;;;21.88;100.00;101873.47;3579515;40;20040;-63
2021/06/26 08:30:34;;;;;;;10.48;8.80;;;;;;;21.73;100.00;101870.72;3578901;40;20046;-63
2021/06/26 08:33:01;;;;;;;10.10;8.77;;;;;;;21.99;100.00;101873.00;3580914;40;20055;-64
2021/06/26 08:35:27;;;;;;;10.55;8.82;;;;;;;22.39;100.00;101865.41;3580406;40;20414;-63
2021/06/26 08:37:54;;;;;;;10.73;8.35;;;;;;;22.39;100.00;101865.41;3581533;40;20110;-64
2021/06/26 08:40:21;;;;;;;13.23;8.95;;;;;;;22.55;100.00;101858.00;3578874;40;20411;-63
2021/06/26 08:42:48;;;;;;;10.80;9.43;;;;;;;21.90;100.00;101856.84;3579452;40;20288;-63
2021/06/26 08:45:18;;;;;;;13.02;9.73;;;;;;;22.04;100.00;101856.88;3579159;40;20037;-63
2021/06/26 08:47:48;;;;;;;11.90;9.60;;;;;;;21.69;100.00;101859.25;3582430;40;20088;-63
2021/06/26 08:50:15;;;;;;;15.43;9.20;;;;;;;22.15;100.00;101855.53;3578684;40;20431;-64
2021/06/26 08:52:41;;;;;;;12.57;9.82;;;;;;;21.98;100.00;101860.38;3580185;40;20068;-63
2021/06/26 08:55:09;;;;;;;12.02;9.93;;;;;;;22.45;100.00;101861.03;3580424;40;20079;-63
2021/06/26 08:57:37;;;;;;;11.30;8.63;;;;;;;23.08;100.00;101855.03;3581002;40;20070;-63
2021/06/26 09:00:07;;;;;;;10.47;8.63;;;;;;;22.92;100.00;101850.63;3578815;40;20279;-63
2021/06/26 09:02:33;;;;;;;11.48;8.90;;;;;;;22.54;100.00;101856.28;3580143;40;20056;-63
2021/06/26 09:05:04;;;;;;;10.05;7.68;;;;;;;22.44;100.00;101856.63;3578880;40;20059;-64
2021/06/26 09:07:31;;;;;;;9.95;8.95;;;;;;;22.20;100.00;101852.22;3579678;40;20298;-63
2021/06/26 09:09:58;;;;;;;13.32;8.48;;;;;;;22.85;100.00;101849.69;3581369;40;20091;-63
2021/06/26 09:12:26;;;;;;;11.00;8.55;;;;;;;23.36;100.00;101851.53;3581239;40;20051;-63
2021/06/26 09:14:53;;;;;;;9.55;7.55;;;;;;;23.53;100.00;101854.88;3580475;39;20130;-63
2021/06/26 09:17:31;;;;;;;10.23;7.75;;;;;;;22.85;100.00;101856.06;3578873;40;20117;-63
2021/06/26 09:20:02;;;;;;;9.15;7.43;;;;;;;23.30;100.00;101857.81;3579306;40;20053;-62
2021/06/26 09:22:41;;;;;;;10.63;9.00;;;;;;;23.27;100.00;101867.31;3579619;40;20052;-64
2021/06/26 09:25:26;;;;;;;11.23;8.30;;;;;;;23.39;100.00;101862.97;3579224;40;20353;-63
2021/06/26 09:27:52;;;;;;;11.43;7.88;;;;;;;23.76;100.00;101858.25;3579824;39;20048;-62
2021/06/26 09:30:32;;;;;;;9.98;7.43;;;;;;;24.21;100.00;101851.59;3578583;40;20062;-63
2021/06/26 09:33:01;;;;;;;10.40;7.65;;;;;;;24.29;100.00;101855.03;3579327;40;20081;-63
2021/06/26 09:35:28;;;;;;;9.90;8.02;;;;;;;24.07;100.00;101864.38;3580393;40;20065;-62
2021/06/26 09:37:57;;;;;;;11.27;8.52;;;;;;;23.92;100.00;101872.75;3580554;40;20062;-64
2021/06/26 09:40:26;;;;;;;9.77;7.50;;;;;;;23.98;100.00;101863.69;3578722;40;20574;-62
2021/06/26 09:42:55;;;;;;;10.88;8.10;;;;;;;24.21;100.00;101859.84;3580446;40;20045;-63
2021/06/26 09:45:21;;;;;;;8.35;7.25;;;;;;;24.11;100.00;101877.53;3578469;40;20060;-63
2021/06/26 09:47:48;;;;;;;9.00;8.05;;;;;;;23.83;100.00;101863.78;3579013;40;20083;-63
2021/06/26 09:50:16;;;;;;;9.98;7.88;;;;;;;24.17;100.00;101870.38;3578686;40;20051;-64
2021/06/26 09:52:45;;;;;;;9.05;8.15;;;;;;;23.94;100.00;101868.75;3580662;40;20065;-63
2021/06/26 09:55:19;;;;;;;10.18;8.02;;;;;;;23.14;100.00;101870.75;3580287;40;20084;-63
2021/06/26 09:57:47;;;;;;;10.32;8.07;;;;;;;23.50;100.00;101875.34;3581317;40;20402;-63
2021/06/26 10:00:15;;;;;;;8.98;8.07;;;;;;;23.83;100.00;101868.44;3580017;40;20069;-63
2021/06/26 10:02:43;;;;;;;10.65;8.23;;;;;;;23.84;100.00;101865.47;3580579;40;20114;-63
2021/06/26 10:05:10;;;;;;;11.73;8.93;;;;;;;23.68;100.00;101865.78;3579828;40;20297;-63
2021/06/26 10:07:39;;;;;;;11.75;8.38;;;;;;;23.90;100.00;101863.88;3580848;40;20063;-63
2021/06/26 10:10:06;;;;;;;9.60;8.10;;;;;;;23.95;100.00;101862.22;3580338;40;20325;-63
2021/06/26 10:12:35;;;;;;;10.23;7.95;;;;;;;23.66;100.00;101860.47;3581186;40;20041;-63
2021/06/26 10:15:01;;;;;;;9.85;8.30;;;;;;;23.79;100.00;101856.97;3580318;40;20441;-63
2021/06/26 10:17:29;;;;;;;9.15;7.95;;;;;;;23.81;100.00;101860.38;3581013;40;20053;-63
2021/06/26 10:19:57;;;;;;;9.88;7.75;;;;;;;24.01;100.00;101857.78;3580788;40;20068;-63
2021/06/26 10:22:24;;;;;;;8.77;7.80;;;;;;;24.12;100.00;101860.00;3580030;40;20041;-63
2021/06/26 10:24:52;;;;;;;11.32;8.20;;;;;;;24.02;100.00;101865.00;3580766;40;20059;-63
2021/06/26 10:27:19;;;;;;;8.65;7.55;;;;;;;23.97;100.00;101859.25;3580887;40;20033;-64
2021/06/26 10:29:47;;;;;;;13.45;7.78;;;;;;;23.60;100.00;101853.88;3580848;40;20063;-63
2021/06/26 10:32:16;;;;;;;8.60;7.63;;;;;;;23.53;100.00;101852.13;3578548;40;20045;-63
2021/06/26 10:34:43;;;;;;;;;;;;;;;22.93;100.00;101853.19;3580369;40;20058;-63
2021/06/26 10:37:18;;;;;;;10.05;8.85;;;;;;;22.17;100.00;101856.22;3579369;40;19939;-62
2021/06/26 10:39:45;;;;;;;11.95;9.45;;;;;;;22.12;100.00;101857.81;3580784;40;20057;-63
2021/06/26 10:42:15;;;;;;;10.20;9.15;;;;;;;22.11;100.00;101864.31;3578614;40;20085;-63
2021/06/26 10:44:49;;;;;;;10.35;9.27;;;;;;;22.38;100.00;101860.97;3580807;40;20049;-63
2021/06/26 10:47:16;;;;;;;14.23;9.02;;;;;;;22.48;100.00;101862.56;3579424;40;20149;-63
2021/06/26 10:49:44;;;;;;;10.32;8.10;;;;;;;22.34;100.00;101862.38;3580905;40;20054;-64
2021/06/26 10:52:14;;;;;;;9.52;8.45;;;;;;;22.52;100.00;101858.38;3580177;40;20130;-63
2021/06/26 10:54:55;;;;;;;9.80;7.85;;;;;;;22.86;100.00;101862.41;3580067;40;20420;-62
2021/06/26 10:57:22;;;;;;;12.68;7.82;;;;;;;22.88;100.00;101860.31;3578829;39;20108;-63
2021/06/26 11:00:01;;;;;;;10.07;8.48;;;;;;;23.10;100.00;101863.97;3579655;40;20059;-63
2021/06/26 11:02:41;;;;;;;9.70;8.30;;;;;;;23.49;100.00;101857.16;3577863;40;20056;-61
2021/06/26 11:05:09;;;;;;;10.52;8.63;;;;;;;23.52;100.00;101850.41;3577681;40;20055;-60
2021/06/26 11:07:36;;;;;;;10.47;8.30;;;;;;;24.10;100.00;101848.34;3578781;40;20049;-63
2021/06/26 11:10:09;;;;;;;9.90;8.40;;;;;;;24.39;100.00;101849.13;3579165;40;20126;-65
2021/06/26 11:12:42;;;;;;;9.57;8.00;;;;;;;24.40;100.00;101847.25;3576690;40;20049;-63